createdAt,value
2023-05-18T00:00:37.228Z,100.00
2023-05-18T00:01:41.293Z,100.00
2023-05-18T00:02:43.937Z,100.00
2023-05-18T00:03:47.496Z,100.00
2023-05-18T00:04:49.955Z,100.00
2023-05-18T00:05:52.182Z,100.00
2023-05-18T00:06:58.660Z,100.00
2023-05-18T00:08:01.661Z,100.00
2023-05-18T00:09:04.023Z,100.00
2023-05-18T00:10:07.348Z,100.00
2023-05-18T00:11:09.603Z,100.00
2023-05-18T00:12:11.740Z,100.00
2023-05-18T00:13:13.951Z,100.00
2023-05-18T00:14:16.211Z,100.00
2023-05-18T00:15:18.531Z,100.00
2023-05-18T00:16:20.852Z,100.00
2023-05-18T00:17:23.555Z,100.00
2023-05-18T00:18:26.535Z,100.00
2023-05-18T00:19:30.027Z,100.00
2023-05-18T00:20:32.367Z,100.00
2023-05-18T00:21:36.145Z,100.00
2023-05-18T00:22:42.852Z,100.00
2023-05-18T00:23:49.587Z,100.00
2023-05-18T00:24:52.742Z,100.00
2023-05-18T00:25:55.052Z,100.00
2023-05-18T00:26:57.229Z,100.00
2023-05-18T00:27:59.402Z,100.00
2023-05-18T00:29:01.579Z,100.00
2023-05-18T00:30:06.307Z,100.00
2023-05-18T00:31:08.562Z,100.00
2023-05-18T00:32:10.767Z,100.00
2023-05-18T00:33:12.900Z,100.00
2023-05-18T00:34:16.214Z,100.00
2023-05-18T00:35:18.425Z,100.00
2023-05-18T00:36:20.609Z,100.00
2023-05-18T00:37:22.818Z,100.00
2023-05-18T00:38:25.163Z,100.00
2023-05-18T00:39:27.357Z,100.00
2023-05-18T00:40:30.056Z,100.00
2023-05-18T00:41:32.798Z,100.00
2023-05-18T00:42:35.607Z,100.00
2023-05-18T00:43:41.381Z,100.00
2023-05-18T00:44:43.630Z,100.00
2023-05-18T00:45:46.074Z,100.00
2023-05-18T00:46:48.460Z,100.00
2023-05-18T00:47:50.891Z,100.00
2023-05-18T00:48:54.672Z,100.00
2023-05-18T00:49:56.837Z,100.00
2023-05-18T00:50:59.058Z,100.00
2023-05-18T00:52:02.768Z,100.00
2023-05-18T00:53:05.021Z,100.00
2023-05-18T00:54:08.274Z,100.00
2023-05-18T00:55:12.524Z,100.00
2023-05-18T00:56:15.650Z,100.00
2023-05-18T00:57:19.124Z,100.00
2023-05-18T00:58:21.336Z,100.00
2023-05-18T00:59:23.535Z,100.00
2023-05-18T01:00:28.413Z,100.00
2023-05-18T01:01:36.533Z,100.00
2023-05-18T01:02:42.766Z,100.00
2023-05-18T01:03:45.265Z,100.00
2023-05-18T01:04:47.503Z,100.00
2023-05-18T01:05:55.786Z,100.00
2023-05-18T01:06:58.537Z,100.00
2023-05-18T01:08:03.074Z,100.00
2023-05-18T01:09:09.082Z,100.00
2023-05-18T01:10:13.364Z,100.00
2023-05-18T01:11:26.106Z,100.00
2023-05-18T01:12:36.277Z,100.00
2023-05-18T01:13:54.212Z,100.00
2023-05-18T01:15:03.526Z,100.00
2023-05-18T01:16:09.925Z,100.00
2023-05-18T01:17:33.572Z,100.00
2023-05-18T01:18:46.962Z,100.00
2023-05-18T01:19:51.906Z,100.00
2023-05-18T01:21:31.540Z,100.00
2023-05-18T01:22:59.036Z,100.00
2023-05-18T01:24:04.902Z,100.00
2023-05-18T01:25:26.647Z,100.00
2023-05-18T01:26:31.681Z,100.00
2023-05-18T01:27:37.657Z,100.00
2023-05-18T01:28:41.121Z,100.00
2023-05-18T01:29:46.010Z,100.00
2023-05-18T01:30:48.840Z,100.00
2023-05-18T01:31:51.298Z,100.00
2023-05-18T01:32:54.300Z,100.00
2023-05-18T01:33:56.526Z,100.00
2023-05-18T01:34:58.719Z,100.00
2023-05-18T01:36:01.224Z,100.00
2023-05-18T01:37:03.472Z,100.00
2023-05-18T01:38:05.705Z,100.00
2023-05-18T01:39:09.471Z,100.00
2023-05-18T01:40:12.962Z,100.00
2023-05-18T01:41:24.263Z,100.00
2023-05-18T01:42:30.379Z,100.00
2023-05-18T01:43:37.841Z,100.00
2023-05-18T01:44:45.451Z,100.00
2023-05-18T01:45:51.242Z,100.00
2023-05-18T01:47:13.007Z,100.00
2023-05-18T01:48:20.688Z,100.00
2023-05-18T01:49:25.738Z,100.00
2023-05-18T01:50:39.006Z,100.00
2023-05-18T01:51:45.779Z,100.00
2023-05-18T01:53:22.862Z,100.00
2023-05-18T01:54:26.810Z,100.00
2023-05-18T01:55:31.633Z,100.00
2023-05-18T01:56:35.724Z,100.00
2023-05-18T01:57:41.416Z,100.00
2023-05-18T01:58:44.498Z,100.00
2023-05-18T01:59:47.413Z,100.00
2023-05-18T02:00:50.534Z,100.00
2023-05-18T02:01:59.416Z,100.00
2023-05-18T02:03:02.677Z,100.00
2023-05-18T02:04:09.665Z,100.00
2023-05-18T02:05:14.827Z,100.00
2023-05-18T02:06:17.465Z,100.00
2023-05-18T02:07:19.954Z,100.00
2023-05-18T02:08:22.125Z,100.00
2023-05-18T02:09:24.357Z,100.00
2023-05-18T02:10:26.687Z,100.00
2023-05-18T02:11:28.875Z,100.00
2023-05-18T02:12:31.062Z,100.00
2023-05-18T02:13:33.276Z,100.00
2023-05-18T02:14:35.562Z,100.00
2023-05-18T02:15:37.822Z,100.00
2023-05-18T02:16:40.054Z,100.00
2023-05-18T02:17:42.271Z,100.00
2023-05-18T02:18:44.900Z,100.00
2023-05-18T02:19:47.316Z,100.00
2023-05-18T02:20:51.138Z,100.00
2023-05-18T02:21:53.469Z,100.00
2023-05-18T02:22:55.863Z,100.00
2023-05-18T02:23:58.143Z,100.00
2023-05-18T02:25:01.699Z,100.00
2023-05-18T02:26:07.204Z,100.00
2023-05-18T02:27:13.037Z,100.00
2023-05-18T02:28:18.082Z,100.00
2023-05-18T02:29:23.457Z,100.00
2023-05-18T02:30:29.357Z,100.00
2023-05-18T02:31:36.370Z,100.00
2023-05-18T02:32:41.404Z,100.00
2023-05-18T02:33:45.518Z,100.00
2023-05-18T02:34:53.639Z,100.00
2023-05-18T02:35:57.245Z,100.00
2023-05-18T02:37:03.679Z,100.00
2023-05-18T02:38:05.862Z,100.00
2023-05-18T02:39:08.708Z,100.00
2023-05-18T02:40:12.673Z,100.00
2023-05-18T02:41:15.918Z,100.00
2023-05-18T02:42:18.122Z,100.00
2023-05-18T02:43:20.457Z,100.00
2023-05-18T02:44:22.618Z,100.00
2023-05-18T02:45:24.821Z,100.00
2023-05-18T02:46:28.002Z,100.00
2023-05-18T02:47:30.408Z,100.00
2023-05-18T02:48:33.689Z,100.00
2023-05-18T02:49:35.974Z,100.00
2023-05-18T02:50:38.502Z,100.00
2023-05-18T02:51:40.811Z,100.00
2023-05-18T02:52:45.489Z,100.00
2023-05-18T02:53:47.953Z,100.00
2023-05-18T02:54:54.644Z,100.00
2023-05-18T02:56:04.867Z,100.00
2023-05-18T02:57:16.818Z,100.00
2023-05-18T02:58:34.129Z,100.00
2023-05-18T02:59:44.087Z,100.00
2023-05-18T03:00:48.881Z,100.00
2023-05-18T03:01:51.188Z,100.00
2023-05-18T03:02:53.858Z,100.00
2023-05-18T03:03:59.861Z,100.00
2023-05-18T03:05:03.413Z,100.00
2023-05-18T03:06:09.211Z,100.00
2023-05-18T03:07:11.512Z,100.00
2023-05-18T03:08:14.377Z,100.00
2023-05-18T03:09:16.649Z,100.00
2023-05-18T03:10:21.152Z,100.00
2023-05-18T03:11:24.488Z,100.00
2023-05-18T03:12:26.736Z,100.00
2023-05-18T03:13:29.062Z,100.00
2023-05-18T03:14:31.333Z,100.00
2023-05-18T03:15:33.570Z,100.00
2023-05-18T03:16:38.800Z,100.00
2023-05-18T03:17:44.527Z,100.00
2023-05-18T03:18:47.909Z,100.00
2023-05-18T03:19:51.377Z,100.00
2023-05-18T03:20:53.589Z,100.00
2023-05-18T03:21:57.876Z,100.00
2023-05-18T03:23:00.176Z,100.00
2023-05-18T03:24:03.266Z,100.00
2023-05-18T03:25:07.842Z,100.00
2023-05-18T03:26:11.778Z,100.00
2023-05-18T03:27:16.662Z,100.00
2023-05-18T03:28:19.358Z,100.00
2023-05-18T03:29:21.642Z,100.00
2023-05-18T03:30:23.897Z,100.00
2023-05-18T03:31:26.365Z,100.00
2023-05-18T03:32:31.917Z,100.00
2023-05-18T03:33:34.320Z,100.00
2023-05-18T03:34:37.214Z,100.00
2023-05-18T03:35:40.795Z,100.00
2023-05-18T03:36:47.287Z,100.00
2023-05-18T03:37:49.908Z,100.00
2023-05-18T03:38:52.154Z,100.00
2023-05-18T03:39:55.681Z,100.00
2023-05-18T03:40:58.150Z,100.00
2023-05-18T03:42:00.913Z,100.00
2023-05-18T03:43:03.119Z,100.00
2023-05-18T03:44:05.715Z,100.00
2023-05-18T03:45:08.996Z,100.00
2023-05-18T03:46:11.474Z,100.00
2023-05-18T03:47:14.224Z,100.00
2023-05-18T03:48:16.436Z,100.00
2023-05-18T03:49:18.628Z,100.00
2023-05-18T03:50:21.318Z,100.00
2023-05-18T03:51:23.709Z,100.00
2023-05-18T03:52:26.145Z,100.00
2023-05-18T03:53:29.558Z,100.00
2023-05-18T03:54:32.832Z,100.00
2023-05-18T03:55:35.187Z,100.00
2023-05-18T03:56:37.412Z,100.00
2023-05-18T03:57:39.652Z,100.00
2023-05-18T03:58:42.493Z,100.00
2023-05-18T03:59:46.030Z,100.00
2023-05-18T04:00:49.527Z,100.00
2023-05-18T04:01:53.950Z,100.00
2023-05-18T04:02:57.865Z,100.00
2023-05-18T04:04:01.272Z,100.00
2023-05-18T04:05:04.091Z,100.00
2023-05-18T04:06:06.922Z,100.00
2023-05-18T04:07:09.146Z,100.00
2023-05-18T04:08:14.403Z,100.00
2023-05-18T04:09:18.423Z,100.00
2023-05-18T04:10:22.010Z,100.00
2023-05-18T04:11:24.198Z,100.00
2023-05-18T04:12:26.377Z,100.00
2023-05-18T04:13:28.788Z,100.00
2023-05-18T04:14:33.124Z,100.00
2023-05-18T04:15:38.064Z,100.00
2023-05-18T04:16:41.625Z,100.00
2023-05-18T04:17:45.687Z,100.00
2023-05-18T04:18:48.364Z,100.00
2023-05-18T04:19:50.691Z,100.00
2023-05-18T04:20:53.167Z,100.00
2023-05-18T04:21:55.342Z,100.00
2023-05-18T04:22:57.571Z,100.00
2023-05-18T04:24:02.946Z,100.00
2023-05-18T04:25:05.534Z,100.00
2023-05-18T04:26:09.066Z,100.00
2023-05-18T04:27:12.216Z,100.00
2023-05-18T04:28:14.614Z,100.00
2023-05-18T04:29:17.402Z,100.00
2023-05-18T04:30:22.556Z,100.00
2023-05-18T04:31:29.418Z,100.00
2023-05-18T04:32:36.564Z,100.00
2023-05-18T04:33:39.859Z,100.00
2023-05-18T04:34:42.569Z,100.00
2023-05-18T04:35:44.778Z,100.00
2023-05-18T04:36:47.912Z,100.00
2023-05-18T04:37:50.214Z,100.00
2023-05-18T04:38:53.497Z,100.00
2023-05-18T04:39:55.729Z,100.00
2023-05-18T04:41:00.419Z,100.00
2023-05-18T04:42:04.555Z,100.00
2023-05-18T04:43:08.395Z,100.00
2023-05-18T04:44:10.707Z,100.00
2023-05-18T04:45:19.186Z,100.00
2023-05-18T04:46:24.697Z,100.00
2023-05-18T04:47:30.145Z,100.00
2023-05-18T04:48:32.554Z,100.00
2023-05-18T04:49:36.997Z,100.00
2023-05-18T04:50:40.110Z,100.00
2023-05-18T04:51:43.387Z,100.00
2023-05-18T04:52:50.387Z,100.00
2023-05-18T04:53:55.725Z,100.00
2023-05-18T04:54:57.949Z,100.00
2023-05-18T04:56:02.377Z,100.00
2023-05-18T04:57:04.987Z,100.00
2023-05-18T04:58:07.230Z,100.00
2023-05-18T04:59:10.781Z,100.00
2023-05-18T05:00:13.437Z,100.00
2023-05-18T05:01:16.028Z,100.00
2023-05-18T05:02:18.598Z,100.00
2023-05-18T05:03:20.848Z,100.00
2023-05-18T05:04:23.915Z,100.00
2023-05-18T05:05:27.097Z,100.00
2023-05-18T05:06:29.632Z,100.00
2023-05-18T05:07:32.339Z,100.00
2023-05-18T05:08:35.083Z,100.00
2023-05-18T05:09:37.319Z,100.00
2023-05-18T05:10:39.612Z,100.00
2023-05-18T05:11:42.118Z,100.00
2023-05-18T05:12:46.030Z,100.00
2023-05-18T05:13:49.073Z,100.00
2023-05-18T05:14:51.483Z,100.00
2023-05-18T05:15:55.673Z,100.00
2023-05-18T05:16:57.859Z,100.00
2023-05-18T05:18:00.159Z,100.00
2023-05-18T05:19:02.596Z,100.00
2023-05-18T05:20:05.478Z,100.00
2023-05-18T05:21:09.422Z,100.00
2023-05-18T05:22:11.676Z,100.00
2023-05-18T05:23:14.092Z,100.00
2023-05-18T05:24:17.925Z,100.00
2023-05-18T05:25:21.598Z,100.00
2023-05-18T05:26:23.851Z,100.00
2023-05-18T05:27:26.318Z,100.00
2023-05-18T05:28:28.557Z,100.00
2023-05-18T05:29:30.868Z,100.00
2023-05-18T05:30:33.136Z,100.00
2023-05-18T05:31:35.414Z,100.00
2023-05-18T05:32:37.923Z,100.00
2023-05-18T05:33:41.970Z,100.00
2023-05-18T05:34:46.836Z,100.00
2023-05-18T05:35:49.374Z,100.00
2023-05-18T05:36:51.664Z,100.00
2023-05-18T05:37:53.861Z,100.00
2023-05-18T05:38:56.034Z,100.00
2023-05-18T05:39:58.298Z,100.00
2023-05-18T05:41:00.716Z,100.00
2023-05-18T05:42:02.958Z,100.00
2023-05-18T05:43:06.275Z,100.00
2023-05-18T05:44:08.691Z,100.00
2023-05-18T05:45:11.170Z,100.00
2023-05-18T05:46:22.908Z,100.00
2023-05-18T05:47:25.331Z,100.00
2023-05-18T05:48:28.819Z,100.00
2023-05-18T05:49:31.248Z,100.00
2023-05-18T05:50:34.241Z,100.00
2023-05-18T05:51:37.716Z,100.00
2023-05-18T05:52:40.231Z,100.00
2023-05-18T05:53:43.561Z,100.00
2023-05-18T05:54:45.797Z,100.00
2023-05-18T05:55:48.029Z,100.00
2023-05-18T05:56:52.275Z,100.00
2023-05-18T05:57:55.087Z,100.00
2023-05-18T05:58:57.447Z,100.00
2023-05-18T05:59:59.672Z,100.00
2023-05-18T06:01:02.533Z,100.00
2023-05-18T06:02:05.078Z,100.00
2023-05-18T06:03:07.990Z,100.00
2023-05-18T06:04:12.980Z,100.00
2023-05-18T06:05:15.552Z,100.00
2023-05-18T06:06:17.747Z,100.00
2023-05-18T06:07:20.156Z,100.00
2023-05-18T06:08:24.342Z,100.00
2023-05-18T06:09:27.066Z,100.00
2023-05-18T06:10:31.164Z,100.00
2023-05-18T06:11:33.478Z,100.00
2023-05-18T06:12:35.663Z,100.00
2023-05-18T06:13:38.094Z,100.00
2023-05-18T06:14:40.712Z,100.00
2023-05-18T06:15:44.031Z,100.00
2023-05-18T06:16:46.306Z,100.00
2023-05-18T06:17:48.941Z,100.00
2023-05-18T06:18:51.904Z,100.00
2023-05-18T06:19:54.643Z,100.00
2023-05-18T06:20:57.355Z,100.00
2023-05-18T06:21:59.603Z,100.00
2023-05-18T06:23:03.666Z,100.00
2023-05-18T06:24:41.126Z,100.00
2023-05-18T06:26:03.606Z,100.00
2023-05-18T06:27:08.748Z,100.00
2023-05-18T06:28:20.228Z,100.00
2023-05-18T06:29:26.200Z,100.00
2023-05-18T06:30:44.030Z,100.00
2023-05-18T06:31:57.830Z,100.00
2023-05-18T06:33:10.811Z,100.00
2023-05-18T06:34:13.188Z,100.00
2023-05-18T06:35:16.048Z,100.00
2023-05-18T06:36:18.558Z,100.00
2023-05-18T06:37:21.408Z,100.00
2023-05-18T06:38:23.915Z,100.00
2023-05-18T06:39:26.394Z,100.00
2023-05-18T06:40:28.714Z,100.00
2023-05-18T06:41:31.294Z,100.00
2023-05-18T06:42:34.031Z,100.00
2023-05-18T06:43:56.455Z,100.00
2023-05-18T06:44:59.636Z,100.00
2023-05-18T06:46:34.385Z,100.00
2023-05-18T06:47:38.943Z,100.00
2023-05-18T06:48:43.691Z,100.00
2023-05-18T06:49:46.037Z,100.00
2023-05-18T06:50:48.270Z,100.00
2023-05-18T06:51:50.625Z,100.00
2023-05-18T06:52:53.360Z,100.00
2023-05-18T06:53:55.602Z,100.00
2023-05-18T06:54:58.076Z,100.00
2023-05-18T06:56:00.972Z,100.00
2023-05-18T06:57:03.373Z,100.00
2023-05-18T06:58:06.490Z,100.00
2023-05-18T06:59:09.002Z,100.00
2023-05-18T07:00:12.565Z,100.00
2023-05-18T07:01:15.204Z,100.00
2023-05-18T07:02:17.905Z,100.00
2023-05-18T07:03:20.202Z,100.00
2023-05-18T07:04:22.798Z,100.00
2023-05-18T07:05:25.050Z,100.00
2023-05-18T07:06:28.041Z,100.00
2023-05-18T07:07:30.409Z,100.00
2023-05-18T07:08:32.980Z,100.00
2023-05-18T07:09:35.254Z,100.00
2023-05-18T07:10:37.603Z,100.00
2023-05-18T07:11:40.576Z,100.00
2023-05-18T07:12:42.885Z,100.00
2023-05-18T07:13:45.130Z,100.00
2023-05-18T07:14:47.331Z,100.00
2023-05-18T07:15:49.641Z,100.00
2023-05-18T07:16:51.875Z,100.00
2023-05-18T07:17:54.112Z,100.00
2023-05-18T07:18:57.938Z,100.00
2023-05-18T07:20:00.209Z,100.00
2023-05-18T07:21:02.486Z,100.00
2023-05-18T07:22:04.751Z,100.00
2023-05-18T07:23:07.338Z,100.00
2023-05-18T07:24:09.571Z,100.00
2023-05-18T07:25:11.744Z,100.00
2023-05-18T07:26:13.966Z,100.00
2023-05-18T07:27:16.237Z,100.00
2023-05-18T07:28:18.531Z,100.00
2023-05-18T07:29:21.081Z,100.00
2023-05-18T07:30:23.832Z,100.00
2023-05-18T07:31:27.743Z,99.10
2023-05-18T07:32:30.040Z,98.18
2023-05-18T07:33:32.906Z,92.65
2023-05-18T07:34:35.477Z,91.56
2023-05-18T07:35:37.777Z,93.70
2023-05-18T07:36:39.965Z,92.63
2023-05-18T07:37:42.617Z,92.84
2023-05-18T07:38:45.136Z,90.05
2023-05-18T07:39:47.356Z,92.89
2023-05-18T07:40:49.583Z,91.95
2023-05-18T07:41:51.789Z,92.83
2023-05-18T07:42:54.036Z,94.18
2023-05-18T07:43:56.548Z,89.53
2023-05-18T07:44:58.866Z,88.43
2023-05-18T07:46:01.064Z,86.35
2023-05-18T07:47:03.545Z,87.79
2023-05-18T07:48:07.798Z,92.14
2023-05-18T07:49:10.068Z,92.69
2023-05-18T07:50:12.302Z,89.05
2023-05-18T07:51:14.677Z,92.16
2023-05-18T07:52:17.088Z,92.35
2023-05-18T07:53:19.280Z,94.32
2023-05-18T07:54:21.700Z,93.86
2023-05-18T07:55:23.956Z,93.21
2023-05-18T07:56:26.237Z,96.95
2023-05-18T07:57:29.858Z,95.13
2023-05-18T07:58:32.067Z,95.52
2023-05-18T07:59:34.252Z,95.30
2023-05-18T08:00:37.287Z,94.80
2023-05-18T08:01:39.971Z,95.91
2023-05-18T08:02:43.206Z,92.03
2023-05-18T08:03:45.682Z,92.70
2023-05-18T08:04:48.329Z,93.14
2023-05-18T08:05:50.495Z,91.59
2023-05-18T08:06:54.893Z,88.20
2023-05-18T08:07:57.081Z,87.97
2023-05-18T08:08:59.247Z,87.05
2023-05-18T08:10:01.554Z,80.94
2023-05-18T08:11:05.124Z,80.53
2023-05-18T08:12:07.876Z,80.81
2023-05-18T08:13:10.373Z,81.33
2023-05-18T08:14:12.557Z,82.56
2023-05-18T08:15:14.691Z,85.90
2023-05-18T08:16:16.944Z,83.79
2023-05-18T08:17:19.775Z,87.03
2023-05-18T08:18:22.594Z,84.52
2023-05-18T08:19:25.953Z,83.54
2023-05-18T08:20:30.164Z,82.14
2023-05-18T08:21:33.120Z,80.54
2023-05-18T08:22:35.401Z,77.14
2023-05-18T08:23:38.389Z,77.12
2023-05-18T08:24:40.696Z,71.46
2023-05-18T08:25:42.834Z,68.63
2023-05-18T08:26:45.132Z,64.65
2023-05-18T08:27:47.333Z,61.69
2023-05-18T08:28:49.543Z,61.93
2023-05-18T08:29:51.727Z,65.05
2023-05-18T08:30:53.935Z,65.12
2023-05-18T08:31:56.458Z,69.01
2023-05-18T08:32:58.717Z,67.91
2023-05-18T08:34:01.422Z,70.91
2023-05-18T08:35:08.447Z,73.77
2023-05-18T08:36:11.491Z,74.02
2023-05-18T08:37:13.685Z,75.64
2023-05-18T08:38:16.938Z,73.91
2023-05-18T08:39:19.226Z,72.21
2023-05-18T08:40:21.554Z,72.49
2023-05-18T08:41:30.006Z,72.28
2023-05-18T08:42:50.542Z,71.70
2023-05-18T08:44:09.877Z,72.43
2023-05-18T08:45:30.678Z,72.18
2023-05-18T08:46:34.443Z,71.73
2023-05-18T08:47:37.790Z,70.21
2023-05-18T08:48:42.262Z,72.06
2023-05-18T08:49:45.616Z,71.17
2023-05-18T08:50:49.643Z,75.15
2023-05-18T08:51:57.657Z,72.46
2023-05-18T08:53:06.185Z,72.71
2023-05-18T08:54:10.652Z,72.57
2023-05-18T08:55:13.713Z,68.55
2023-05-18T08:56:16.760Z,71.42
2023-05-18T08:57:22.196Z,72.46
2023-05-18T08:58:41.493Z,74.35
2023-05-18T08:59:44.763Z,73.41
2023-05-18T09:00:47.086Z,72.19
2023-05-18T09:01:50.619Z,73.29
2023-05-18T09:02:53.378Z,72.66
2023-05-18T09:03:57.966Z,71.53
2023-05-18T09:05:01.184Z,71.12
2023-05-18T09:06:04.644Z,70.60
2023-05-18T09:07:07.882Z,72.97
2023-05-18T09:08:10.784Z,73.79
2023-05-18T09:09:14.329Z,75.17
2023-05-18T09:10:17.854Z,76.63
2023-05-18T09:11:25.403Z,77.50
2023-05-18T09:12:28.560Z,72.96
2023-05-18T09:13:31.332Z,71.82
2023-05-18T09:14:33.753Z,74.18
2023-05-18T09:15:36.016Z,73.69
2023-05-18T09:16:38.566Z,71.01
2023-05-18T09:17:40.857Z,72.32
2023-05-18T09:18:43.231Z,69.73
2023-05-18T09:19:45.486Z,68.01
2023-05-18T09:20:48.179Z,68.38
2023-05-18T09:21:50.616Z,67.54
2023-05-18T09:22:53.008Z,66.63
2023-05-18T09:23:55.639Z,67.94
2023-05-18T09:24:58.044Z,67.52
2023-05-18T09:26:00.876Z,68.61
2023-05-18T09:27:03.861Z,65.85
2023-05-18T09:28:06.312Z,66.33
2023-05-18T09:29:20.059Z,61.81
2023-05-18T09:30:22.530Z,60.11
2023-05-18T09:31:26.655Z,57.47
2023-05-18T09:32:29.753Z,56.66
2023-05-18T09:33:40.622Z,51.97
2023-05-18T09:34:43.045Z,49.65
2023-05-18T09:35:48.190Z,48.43
2023-05-18T09:36:52.887Z,46.69
2023-05-18T09:37:55.227Z,47.77
2023-05-18T09:38:58.539Z,46.72
2023-05-18T09:40:04.781Z,47.03
2023-05-18T09:41:11.322Z,48.28
2023-05-18T09:42:13.585Z,49.57
2023-05-18T09:43:21.486Z,52.54
2023-05-18T09:44:36.711Z,50.16
2023-05-18T09:45:46.774Z,48.44
2023-05-18T09:46:49.121Z,47.08
2023-05-18T09:47:52.685Z,43.67
2023-05-18T09:48:55.117Z,43.84
2023-05-18T09:49:57.899Z,42.03
2023-05-18T09:51:00.180Z,40.71
2023-05-18T09:52:02.872Z,38.61
2023-05-18T09:53:09.781Z,36.23
2023-05-18T09:54:12.170Z,35.10
2023-05-18T09:55:18.558Z,32.85
2023-05-18T09:56:21.528Z,33.12
2023-05-18T09:57:23.822Z,32.70
2023-05-18T09:58:26.628Z,33.43
2023-05-18T09:59:30.428Z,33.18
2023-05-18T10:00:37.201Z,33.79
2023-05-18T10:01:56.490Z,32.63
2023-05-18T10:02:59.387Z,32.38
2023-05-18T10:04:05.470Z,32.29
2023-05-18T10:05:23.101Z,31.25
2023-05-18T10:06:27.376Z,33.03
2023-05-18T10:07:29.637Z,35.09
2023-05-18T10:08:32.880Z,35.26
2023-05-18T10:09:35.057Z,35.34
2023-05-18T10:10:39.762Z,33.29
2023-05-18T10:11:42.018Z,33.05
2023-05-18T10:12:44.365Z,34.38
2023-05-18T10:13:47.128Z,35.98
2023-05-18T10:14:49.434Z,35.65
2023-05-18T10:15:55.005Z,34.70
2023-05-18T10:17:07.276Z,32.89
2023-05-18T10:18:24.425Z,33.43
2023-05-18T10:19:28.359Z,33.38
2023-05-18T10:20:32.459Z,34.01
2023-05-18T10:21:37.269Z,32.89
2023-05-18T10:22:40.824Z,31.48
2023-05-18T10:23:46.646Z,31.64
2023-05-18T10:24:54.568Z,28.84
2023-05-18T10:25:57.600Z,29.33
2023-05-18T10:27:03.071Z,29.20
2023-05-18T10:28:07.826Z,29.47
2023-05-18T10:29:11.041Z,27.71
2023-05-18T10:30:14.819Z,28.72
2023-05-18T10:31:17.253Z,28.87
2023-05-18T10:32:22.928Z,27.95
2023-05-18T10:33:29.706Z,28.11
2023-05-18T10:34:36.281Z,29.48
2023-05-18T10:35:39.004Z,29.38
2023-05-18T10:36:42.814Z,28.38
2023-05-18T10:37:50.331Z,29.72
2023-05-18T10:38:53.954Z,30.70
2023-05-18T10:39:58.451Z,31.96
2023-05-18T10:41:01.613Z,31.17
2023-05-18T10:42:06.095Z,30.73
2023-05-18T10:43:08.283Z,32.82
2023-05-18T10:44:10.626Z,32.14
2023-05-18T10:45:14.088Z,32.41
2023-05-18T10:46:16.852Z,31.26
2023-05-18T10:47:20.718Z,31.59
2023-05-18T10:48:24.269Z,30.98
2023-05-18T10:49:28.035Z,31.50
2023-05-18T10:50:32.038Z,31.66
2023-05-18T10:51:35.650Z,33.66
2023-05-18T10:52:38.233Z,33.22
2023-05-18T10:53:43.797Z,33.45
2023-05-18T10:54:46.602Z,33.77
2023-05-18T10:55:49.705Z,33.00
2023-05-18T10:56:53.776Z,32.93
2023-05-18T10:57:59.991Z,32.53
2023-05-18T10:59:03.592Z,33.58
2023-05-18T11:00:09.173Z,33.07
2023-05-18T11:01:12.752Z,33.53
2023-05-18T11:02:18.617Z,32.58
2023-05-18T11:03:22.303Z,32.27
2023-05-18T11:04:27.040Z,31.30
2023-05-18T11:05:29.379Z,32.56
2023-05-18T11:06:33.678Z,31.86
2023-05-18T11:07:37.078Z,31.58
2023-05-18T11:08:49.872Z,29.50
2023-05-18T11:09:52.281Z,30.27
2023-05-18T11:11:03.148Z,29.39
2023-05-18T11:12:12.291Z,30.31
2023-05-18T11:13:15.456Z,28.67
2023-05-18T11:14:31.260Z,29.54
2023-05-18T11:15:55.602Z,29.07
2023-05-18T11:17:18.330Z,27.28
2023-05-18T11:18:26.744Z,29.63
2023-05-18T11:19:31.213Z,29.37
2023-05-18T11:20:33.496Z,30.39
2023-05-18T11:21:36.044Z,30.82
2023-05-18T11:22:52.087Z,31.19
2023-05-18T11:24:29.907Z,32.81
2023-05-18T11:25:35.042Z,32.30
2023-05-18T11:26:41.335Z,32.94
2023-05-18T11:27:43.623Z,32.53
2023-05-18T11:28:48.913Z,31.65
2023-05-18T11:29:57.752Z,30.36
2023-05-18T11:31:06.399Z,30.88
2023-05-18T11:32:32.668Z,29.67
2023-05-18T11:33:36.626Z,29.26
2023-05-18T11:34:49.934Z,29.25
2023-05-18T11:36:01.060Z,29.18
2023-05-18T11:37:03.322Z,28.76
2023-05-18T11:38:08.637Z,30.11
2023-05-18T11:39:11.479Z,29.55
2023-05-18T11:40:44.401Z,29.47
2023-05-18T11:41:59.094Z,28.31
2023-05-18T11:43:01.374Z,29.23
2023-05-18T11:44:16.045Z,29.82
2023-05-18T11:45:18.451Z,29.97
2023-05-18T11:46:21.972Z,31.51
2023-05-18T11:47:31.501Z,30.37
2023-05-18T11:48:34.138Z,30.20
2023-05-18T11:49:42.524Z,31.17
2023-05-18T11:50:46.991Z,31.87
2023-05-18T11:52:07.002Z,33.20
2023-05-18T11:53:16.127Z,33.33
2023-05-18T11:54:18.380Z,33.02
2023-05-18T11:55:21.348Z,31.53
2023-05-18T11:56:26.271Z,34.18
2023-05-18T11:57:34.437Z,33.24
2023-05-18T11:58:37.290Z,33.43
2023-05-18T11:59:44.949Z,33.80
2023-05-18T12:00:48.960Z,31.61
2023-05-18T12:01:51.346Z,33.10
2023-05-18T12:02:56.720Z,34.89
2023-05-18T12:03:59.483Z,33.11
2023-05-18T12:05:07.074Z,33.54
2023-05-18T12:06:09.492Z,33.63
2023-05-18T12:07:12.655Z,34.54
2023-05-18T12:08:19.240Z,35.86
2023-05-18T12:09:21.778Z,36.72
2023-05-18T12:10:24.230Z,35.24
2023-05-18T12:11:26.720Z,35.89
2023-05-18T12:12:29.046Z,36.00
2023-05-18T12:13:31.785Z,36.57
2023-05-18T12:14:35.378Z,37.75
2023-05-18T12:15:38.067Z,38.93
2023-05-18T12:16:40.586Z,38.31
2023-05-18T12:17:47.376Z,37.58
2023-05-18T12:18:50.565Z,38.07
2023-05-18T12:19:52.866Z,37.75
2023-05-18T12:20:55.206Z,35.90
2023-05-18T12:21:58.966Z,35.98
2023-05-18T12:23:01.362Z,35.45
2023-05-18T12:24:04.198Z,35.41
2023-05-18T12:25:07.132Z,36.17
2023-05-18T12:26:09.344Z,33.85
2023-05-18T12:27:13.080Z,34.42
2023-05-18T12:28:17.148Z,34.09
2023-05-18T12:29:21.821Z,34.16
2023-05-18T12:30:27.064Z,36.28
2023-05-18T12:31:30.120Z,37.19
2023-05-18T12:32:32.670Z,38.13
2023-05-18T12:33:35.026Z,40.16
2023-05-18T12:34:38.309Z,39.90
2023-05-18T12:35:40.495Z,41.54
2023-05-18T12:36:52.688Z,41.29
2023-05-18T12:37:57.961Z,41.11
2023-05-18T12:39:02.068Z,41.58
2023-05-18T12:40:04.648Z,42.25
2023-05-18T12:41:07.341Z,41.95
2023-05-18T12:42:10.560Z,42.46
2023-05-18T12:43:13.277Z,42.04
2023-05-18T12:44:15.680Z,41.37
2023-05-18T12:45:17.982Z,40.70
2023-05-18T12:46:24.146Z,40.10
2023-05-18T12:47:30.064Z,39.64
2023-05-18T12:48:45.043Z,39.86
2023-05-18T12:49:50.258Z,39.98
2023-05-18T12:50:52.609Z,40.48
2023-05-18T12:51:55.812Z,42.08
2023-05-18T12:52:58.078Z,41.51
2023-05-18T12:54:00.621Z,41.58
2023-05-18T12:55:03.574Z,41.21
2023-05-18T12:56:09.765Z,40.49
2023-05-18T12:57:12.404Z,40.75
2023-05-18T12:59:19.769Z,43.15
2023-05-18T13:00:23.362Z,44.52
2023-05-18T13:01:26.337Z,43.69
2023-05-18T13:02:38.881Z,43.43
2023-05-18T13:03:42.263Z,44.28
2023-05-18T13:04:44.584Z,44.20
2023-05-18T13:06:05.455Z,44.17
2023-05-18T13:07:07.560Z,46.77
2023-05-18T13:08:14.643Z,46.66
2023-05-18T13:09:17.381Z,46.35
2023-05-18T13:10:20.401Z,46.09
2023-05-18T13:11:26.462Z,45.60
2023-05-18T13:12:41.457Z,47.21
2023-05-18T13:14:00.622Z,48.35
2023-05-18T13:15:14.562Z,49.51
2023-05-18T13:16:16.982Z,50.64
2023-05-18T13:17:22.673Z,52.39
2023-05-18T13:18:26.231Z,51.69
2023-05-18T13:19:28.435Z,49.45
2023-05-18T13:20:33.878Z,49.93
2023-05-18T13:21:38.129Z,49.22
2023-05-18T13:22:40.378Z,48.77
2023-05-18T13:23:43.281Z,48.46
2023-05-18T13:24:46.667Z,50.12
2023-05-18T13:25:49.876Z,52.00
2023-05-18T13:26:52.085Z,51.79
2023-05-18T13:27:55.024Z,52.80
2023-05-18T13:28:58.020Z,50.36
2023-05-18T13:30:00.342Z,50.84
2023-05-18T13:31:02.930Z,54.23
2023-05-18T13:32:05.694Z,51.72
2023-05-18T13:33:08.904Z,52.92
2023-05-18T13:34:11.458Z,53.62
2023-05-18T13:35:13.678Z,53.56
2023-05-18T13:36:16.668Z,54.12
2023-05-18T13:37:19.616Z,56.11
2023-05-18T13:38:21.836Z,58.16